Home » Aircrafts » Cessna » Caravan » [Caravan] アジア航測 Asia Air Survey Cessna 208 Caravan I JA13AJ LANDING TOYAMA Airport 富山空港 2020.9.19

2020.9.19 富山空港 TOYAMA Airport, Toyama, JAPAN

– Flight Data –
Date: Sep 19, 2020
Asia Air Survey アジア航測
Aircraft: Cessna 208 Caravan I
Registration No.: JA13AJ
Flight No.: VFR
Origin: Toyama (RJNT/TOY)
Destination: Toyama (RJNT/TOY)
Runway:
20
Landing:
0117Z
METAR RJNT 190100Z VRB02KT 9999 FEW020 SCT060 25/16 Q1014

[whitewing681 YouTube Channel] 旅行・飛行機・鉄道・乗り物動画を公開中

[Subscribe チャンネル登録] [whitewing681 YouTube Channel Blog] http://whitewing681.blogspot.jp/

Add comment

Your email address will not be published. Required fields are marked *

Log In

Aircraft Sale

Categories